createdAt,value
2022-08-22T00:00:13.469Z,16.40
2022-08-22T00:02:48.935Z,18.40
2022-08-22T00:03:15.478Z,16.40
2022-08-22T00:05:38.406Z,16.40
2022-08-22T00:08:09.773Z,16.30
2022-08-22T00:10:48.360Z,16.20
2022-08-22T00:13:20.878Z,16.30
2022-08-22T00:15:51.271Z,16.20
2022-08-22T00:18:22.444Z,16.20
2022-08-22T00:20:54.221Z,16.20
2022-08-22T00:23:26.360Z,16.10
2022-08-22T00:25:56.388Z,16.00
2022-08-22T00:28:25.736Z,16.00
2022-08-22T00:30:57.821Z,16.00
2022-08-22T00:33:29.217Z,16.00
2022-08-22T00:36:07.180Z,16.00
2022-08-22T00:38:40.039Z,15.90
2022-08-22T00:41:21.966Z,15.90
2022-08-22T00:44:10.853Z,15.90
2022-08-22T00:47:00.939Z,15.90
2022-08-22T00:49:54.036Z,15.80
2022-08-22T00:52:47.078Z,15.80
2022-08-22T00:55:28.070Z,15.80
2022-08-22T00:58:18.599Z,15.70
2022-08-22T01:00:48.880Z,15.70
2022-08-22T01:03:44.990Z,15.70
2022-08-22T01:06:20.886Z,15.70
2022-08-22T01:09:02.462Z,15.60
2022-08-22T01:11:53.099Z,15.60
2022-08-22T01:14:35.128Z,15.60
2022-08-22T01:17:38.013Z,15.50
2022-08-22T01:20:34.048Z,15.60
2022-08-22T01:23:35.575Z,15.50
2022-08-22T01:26:41.870Z,15.50
2022-08-22T01:29:49.401Z,15.50
2022-08-22T01:32:57.083Z,15.40
2022-08-22T01:36:01.114Z,15.40
2022-08-22T01:39:03.427Z,15.40
2022-08-22T01:42:10.184Z,15.30
2022-08-22T01:44:57.815Z,15.30
2022-08-22T01:47:27.856Z,15.30
2022-08-22T01:50:01.557Z,15.20
2022-08-22T01:52:37.366Z,15.10
2022-08-22T01:55:10.635Z,15.10
2022-08-22T01:57:50.603Z,15.00
2022-08-22T02:00:35.184Z,15.00
2022-08-22T02:03:13.628Z,15.00
2022-08-22T02:05:47.982Z,14.90
2022-08-22T02:08:22.894Z,14.90
2022-08-22T02:10:58.290Z,14.90
2022-08-22T02:13:37.601Z,14.80
2022-08-22T02:16:09.560Z,14.80
2022-08-22T02:18:51.207Z,14.80
2022-08-22T02:21:22.657Z,14.80
2022-08-22T02:23:56.061Z,14.70
2022-08-22T02:26:27.099Z,14.70
2022-08-22T02:28:58.703Z,14.70
2022-08-22T02:31:40.017Z,14.70
2022-08-22T02:34:31.446Z,14.60
2022-08-22T02:37:06.874Z,14.60
2022-08-22T02:39:38.416Z,14.60
2022-08-22T02:42:16.004Z,14.60
2022-08-22T02:44:48.766Z,14.60
2022-08-22T02:47:22.118Z,14.50
2022-08-22T02:49:53.105Z,14.50
2022-08-22T02:52:26.794Z,14.60
2022-08-22T02:54:59.501Z,14.50
2022-08-22T02:57:34.537Z,14.60
2022-08-22T03:00:31.512Z,14.50
2022-08-22T03:03:04.487Z,14.50
2022-08-22T03:05:43.131Z,14.50
2022-08-22T03:08:14.984Z,14.50
2022-08-22T03:10:46.747Z,14.50
2022-08-22T03:13:17.890Z,14.50
2022-08-22T03:15:49.441Z,14.50
2022-08-22T03:18:22.074Z,14.50
2022-08-22T03:20:54.111Z,14.50
2022-08-22T03:23:27.728Z,14.50
2022-08-22T03:26:01.859Z,14.40
2022-08-22T03:28:37.897Z,14.40
2022-08-22T03:31:12.871Z,14.40
2022-08-22T03:33:40.937Z,14.30
2022-08-22T03:36:13.467Z,14.30
2022-08-22T03:38:49.095Z,14.30
2022-08-22T03:41:42.965Z,14.30
2022-08-22T03:44:20.730Z,14.20
2022-08-22T03:47:04.560Z,14.20
2022-08-22T03:49:50.445Z,14.20
2022-08-22T03:52:58.747Z,14.20
2022-08-22T03:55:27.925Z,14.20
2022-08-22T03:58:13.664Z,14.20
2022-08-22T04:01:29.670Z,14.20
2022-08-22T04:04:39.234Z,14.20
2022-08-22T04:07:38.385Z,14.20
2022-08-22T04:10:49.810Z,14.20
2022-08-22T04:13:34.855Z,14.20
2022-08-22T04:16:39.032Z,14.30
2022-08-22T04:19:30.425Z,14.30
2022-08-22T04:22:13.600Z,14.30
2022-08-22T04:24:48.391Z,14.30
2022-08-22T04:27:23.406Z,14.30
2022-08-22T04:29:55.905Z,14.40
2022-08-22T04:32:27.112Z,14.40
2022-08-22T04:34:57.095Z,14.40
2022-08-22T04:37:26.351Z,14.40
2022-08-22T04:39:56.816Z,14.50
2022-08-22T04:42:32.623Z,14.50
2022-08-22T04:45:07.310Z,14.50
2022-08-22T04:47:37.956Z,14.50
2022-08-22T04:50:09.208Z,14.60
2022-08-22T04:52:53.164Z,14.60
2022-08-22T04:55:28.140Z,14.60
2022-08-22T04:57:58.524Z,14.60
2022-08-22T05:00:36.659Z,14.70
2022-08-22T05:03:04.718Z,14.70
2022-08-22T05:05:36.664Z,14.80
2022-08-22T05:08:04.830Z,14.80
2022-08-22T05:10:36.711Z,14.90
2022-08-22T05:13:07.395Z,14.90
2022-08-22T05:15:38.080Z,15.00
2022-08-22T05:18:08.186Z,15.10
2022-08-22T05:20:36.307Z,15.10
2022-08-22T05:23:17.496Z,15.20
2022-08-22T05:25:46.572Z,15.30
2022-08-22T05:28:16.198Z,15.40
2022-08-22T05:30:46.826Z,15.50
2022-08-22T05:33:26.378Z,15.60
2022-08-22T05:35:58.055Z,15.70
2022-08-22T05:38:30.519Z,15.80
2022-08-22T05:41:00.973Z,15.90
2022-08-22T05:43:29.047Z,16.00
2022-08-22T05:45:58.968Z,16.20
2022-08-22T05:48:30.265Z,16.30
2022-08-22T05:51:00.077Z,16.40
2022-08-22T05:53:30.652Z,16.50
2022-08-22T05:56:00.119Z,16.70
2022-08-22T05:58:50.827Z,16.90
2022-08-22T06:01:30.210Z,17.10
2022-08-22T06:04:02.551Z,17.40
2022-08-22T06:06:31.344Z,17.60
2022-08-22T06:09:02.707Z,17.80
2022-08-22T06:11:33.922Z,18.00
2022-08-22T06:14:08.057Z,18.10
2022-08-22T06:16:40.629Z,18.20
2022-08-22T06:19:19.780Z,18.40
2022-08-22T06:21:49.343Z,18.60
2022-08-22T06:24:21.224Z,18.70
2022-08-22T06:26:51.219Z,18.70
2022-08-22T06:29:31.347Z,18.90
2022-08-22T06:32:00.898Z,19.10
2022-08-22T06:34:30.119Z,19.20
2022-08-22T06:36:58.802Z,19.40
2022-08-22T06:39:28.363Z,19.60
2022-08-22T06:41:58.066Z,19.70
2022-08-22T06:44:28.450Z,19.80
2022-08-22T06:46:58.570Z,20.00
2022-08-22T06:49:29.124Z,20.00
2022-08-22T06:51:59.703Z,20.20
2022-08-22T06:54:33.792Z,20.50
2022-08-22T06:57:02.427Z,20.60
2022-08-22T06:59:31.020Z,20.80
2022-08-22T07:02:00.552Z,21.00
2022-08-22T07:04:30.031Z,21.00
2022-08-22T07:06:58.709Z,21.20
2022-08-22T07:09:28.218Z,21.40
2022-08-22T07:11:57.315Z,21.60
2022-08-22T07:14:30.396Z,21.80
2022-08-22T07:16:59.754Z,22.00
2022-08-22T07:19:33.568Z,22.20
2022-08-22T07:22:12.155Z,22.10
2022-08-22T07:24:46.600Z,22.40
2022-08-22T07:27:20.340Z,22.60
2022-08-22T07:29:51.035Z,22.80
2022-08-22T07:32:20.638Z,22.80
2022-08-22T07:35:02.042Z,22.80
2022-08-22T07:37:36.695Z,22.80
2022-08-22T07:40:09.105Z,22.90
2022-08-22T07:42:44.260Z,23.00
2022-08-22T07:45:17.236Z,23.00
2022-08-22T07:47:57.199Z,23.20
2022-08-22T07:50:29.735Z,23.10
2022-08-22T07:53:15.659Z,23.40
2022-08-22T07:55:48.401Z,23.50
2022-08-22T07:58:17.930Z,23.60
2022-08-22T08:00:46.334Z,23.60
2022-08-22T08:03:14.423Z,23.80
2022-08-22T08:05:44.970Z,23.90
2022-08-22T08:08:23.211Z,24.10
2022-08-22T08:10:51.942Z,24.30
2022-08-22T08:13:23.210Z,24.50
2022-08-22T08:15:51.315Z,24.40
2022-08-22T08:18:22.043Z,24.70
2022-08-22T08:20:53.183Z,24.80
2022-08-22T08:23:23.599Z,25.00
2022-08-22T08:25:58.776Z,25.00
2022-08-22T08:28:34.992Z,25.20
2022-08-22T08:31:09.832Z,25.20
2022-08-22T08:33:40.041Z,25.40
2022-08-22T08:36:20.542Z,25.40
2022-08-22T08:38:50.624Z,25.70
2022-08-22T08:41:41.985Z,25.80
2022-08-22T08:44:17.067Z,25.90
2022-08-22T08:47:14.927Z,26.10
2022-08-22T08:49:58.954Z,26.20
2022-08-22T08:52:42.584Z,26.30
2022-08-22T08:55:22.764Z,26.20
2022-08-22T08:58:06.795Z,26.20
2022-08-22T09:00:49.992Z,26.40
2022-08-22T09:06:44.568Z,26.30
2022-08-22T09:09:29.904Z,26.50
2022-08-22T09:12:10.855Z,26.70
2022-08-22T09:15:23.927Z,26.70
2022-08-22T09:18:28.339Z,26.70
2022-08-22T09:21:30.429Z,26.40
2022-08-22T09:24:32.917Z,26.30
2022-08-22T09:27:03.722Z,26.40
2022-08-22T09:29:54.643Z,26.60
2022-08-22T09:32:29.421Z,26.60
2022-08-22T09:35:01.588Z,26.80
2022-08-22T09:37:34.950Z,26.60
2022-08-22T09:40:05.702Z,26.50
2022-08-22T09:42:44.970Z,26.30
2022-08-22T09:45:51.730Z,26.40
2022-08-22T09:48:30.491Z,26.60
2022-08-22T09:51:28.269Z,26.70
2022-08-22T09:54:07.329Z,26.60
2022-08-22T09:56:38.922Z,26.90
2022-08-22T09:59:12.705Z,27.00
2022-08-22T10:01:47.579Z,27.00
2022-08-22T10:04:40.661Z,27.20
2022-08-22T10:07:34.211Z,27.10
2022-08-22T10:10:07.784Z,27.20
2022-08-22T10:12:42.606Z,27.10
2022-08-22T10:15:18.742Z,26.90
2022-08-22T10:17:55.449Z,26.60
2022-08-22T10:20:27.693Z,27.00
2022-08-22T10:23:00.521Z,26.90
2022-08-22T10:25:34.774Z,26.60
2022-08-22T10:28:32.487Z,26.50
2022-08-22T10:31:15.710Z,26.20
2022-08-22T10:33:46.596Z,26.60
2022-08-22T10:36:17.823Z,26.80
2022-08-22T10:38:47.360Z,27.20
2022-08-22T10:41:23.181Z,27.40
2022-08-22T10:44:00.604Z,27.50
2022-08-22T10:46:33.437Z,27.40
2022-08-22T10:49:08.058Z,27.20
2022-08-22T10:51:40.757Z,27.20
2022-08-22T10:54:27.276Z,27.40
2022-08-22T10:57:03.713Z,27.50
2022-08-22T10:59:39.402Z,27.70
2022-08-22T11:02:28.628Z,27.70
2022-08-22T11:05:15.688Z,27.70
2022-08-22T11:07:48.676Z,27.50
2022-08-22T11:10:25.014Z,27.40
2022-08-22T11:13:00.289Z,27.70
2022-08-22T11:15:59.174Z,28.10
2022-08-22T11:18:37.711Z,28.50
2022-08-22T11:21:07.487Z,28.50
2022-08-22T11:23:44.836Z,29.00
2022-08-22T11:26:33.513Z,29.50
2022-08-22T11:29:18.660Z,29.80
2022-08-22T11:31:52.177Z,30.10
2022-08-22T11:34:29.555Z,29.70
2022-08-22T11:37:01.194Z,29.60
2022-08-22T11:39:34.228Z,28.80
2022-08-22T11:42:06.536Z,28.90
2022-08-22T11:44:50.475Z,29.40
2022-08-22T11:47:20.793Z,29.70
2022-08-22T11:49:59.291Z,30.00
2022-08-22T11:52:51.701Z,29.30
2022-08-22T11:55:23.191Z,29.40
2022-08-22T11:57:53.088Z,29.40
2022-08-22T12:00:33.918Z,29.20
2022-08-22T12:03:27.264Z,29.60
2022-08-22T12:05:59.418Z,29.80
2022-08-22T12:09:01.240Z,30.00
2022-08-22T12:11:33.573Z,29.70
2022-08-22T12:14:05.853Z,30.00
2022-08-22T12:16:45.056Z,30.20
2022-08-22T12:19:19.333Z,30.50
2022-08-22T12:22:31.147Z,30.70
2022-08-22T12:25:07.108Z,30.90
2022-08-22T12:27:50.749Z,31.40
2022-08-22T12:30:29.851Z,31.20
2022-08-22T12:33:22.004Z,30.70
2022-08-22T12:36:18.711Z,30.20
2022-08-22T12:39:02.825Z,30.60
2022-08-22T12:41:46.490Z,30.40
2022-08-22T12:44:26.337Z,30.50
2022-08-22T12:47:22.836Z,30.70
2022-08-22T12:50:20.588Z,30.90
2022-08-22T12:53:01.388Z,30.70
2022-08-22T12:55:36.237Z,30.70
2022-08-22T12:58:11.218Z,30.60
2022-08-22T13:00:40.381Z,30.10
2022-08-22T13:03:12.450Z,29.80
2022-08-22T13:05:41.280Z,29.50
2022-08-22T13:08:12.250Z,29.40
2022-08-22T13:10:46.725Z,29.40
2022-08-22T13:13:16.954Z,29.50
2022-08-22T13:15:57.101Z,29.50
2022-08-22T13:18:31.088Z,29.40
2022-08-22T13:21:01.590Z,29.40
2022-08-22T13:23:31.010Z,29.50
2022-08-22T13:26:07.956Z,29.30
2022-08-22T13:28:38.730Z,29.20
2022-08-22T13:31:06.929Z,28.40
2022-08-22T13:33:37.578Z,28.50
2022-08-22T13:36:07.003Z,28.60
2022-08-22T13:38:46.376Z,28.90
2022-08-22T13:41:20.259Z,28.90
2022-08-22T13:44:08.212Z,28.80
2022-08-22T13:46:48.151Z,28.80
2022-08-22T13:49:33.093Z,28.90
2022-08-22T13:52:08.317Z,28.90
2022-08-22T13:54:51.934Z,28.60
2022-08-22T13:57:25.648Z,28.40
2022-08-22T14:00:05.089Z,28.10
2022-08-22T14:02:52.919Z,28.10
2022-08-22T14:05:23.418Z,28.20
2022-08-22T14:07:55.544Z,28.00
2022-08-22T14:10:28.436Z,28.20
2022-08-22T14:13:30.821Z,28.30
2022-08-22T14:16:02.378Z,28.20
2022-08-22T14:18:35.963Z,28.20
2022-08-22T14:21:33.429Z,28.20
2022-08-22T14:24:13.863Z,28.30
2022-08-22T14:26:47.599Z,27.90
2022-08-22T14:29:18.658Z,27.90
2022-08-22T14:31:57.169Z,27.80
2022-08-22T14:34:25.231Z,27.80
2022-08-22T14:36:55.288Z,27.80
2022-08-22T14:39:24.504Z,27.60
2022-08-22T14:41:57.952Z,27.40
2022-08-22T14:44:32.398Z,27.40
2022-08-22T14:47:03.773Z,27.10
2022-08-22T14:49:36.158Z,26.80
2022-08-22T14:52:08.944Z,26.70
2022-08-22T14:54:37.168Z,26.70
2022-08-22T14:57:10.066Z,26.50
2022-08-22T14:59:47.026Z,26.60
2022-08-22T15:02:24.923Z,26.60
2022-08-22T15:04:55.005Z,26.60
2022-08-22T15:07:24.686Z,26.60
2022-08-22T15:09:54.754Z,26.70
2022-08-22T15:12:26.993Z,26.80
2022-08-22T15:14:57.730Z,26.50
2022-08-22T15:17:37.923Z,26.40
2022-08-22T15:20:12.938Z,26.50
2022-08-22T15:22:41.452Z,26.50
2022-08-22T15:25:16.364Z,26.50
2022-08-22T15:27:47.927Z,26.40
2022-08-22T15:30:20.849Z,26.40
2022-08-22T15:32:50.104Z,26.10
2022-08-22T15:35:27.731Z,25.90
2022-08-22T15:38:00.344Z,26.00
2022-08-22T15:40:33.964Z,26.00
2022-08-22T15:43:13.599Z,26.00
2022-08-22T15:45:44.512Z,26.10
2022-08-22T15:48:25.191Z,26.00
2022-08-22T15:50:57.642Z,26.20
2022-08-22T15:53:27.083Z,26.20
2022-08-22T15:56:19.895Z,26.20
2022-08-22T15:58:49.687Z,26.10
2022-08-22T16:01:20.632Z,26.20
2022-08-22T16:03:55.053Z,26.20
2022-08-22T16:06:42.400Z,26.30
2022-08-22T16:09:10.836Z,26.20
2022-08-22T16:11:39.334Z,26.10
2022-08-22T16:14:18.638Z,25.90
2022-08-22T16:17:01.966Z,26.00
2022-08-22T16:19:30.435Z,26.00
2022-08-22T16:22:12.221Z,26.10
2022-08-22T16:25:00.188Z,26.10
2022-08-22T16:27:29.032Z,26.10
2022-08-22T16:30:15.432Z,25.90
2022-08-22T16:32:56.375Z,26.00
2022-08-22T16:36:02.108Z,25.60
2022-08-22T16:38:36.894Z,25.40
2022-08-22T16:41:05.262Z,25.20
2022-08-22T16:43:33.326Z,25.10
2022-08-22T16:46:02.664Z,25.00
2022-08-22T16:48:36.401Z,24.80
2022-08-22T16:51:11.116Z,24.70
2022-08-22T16:54:11.130Z,24.70
2022-08-22T16:57:00.881Z,24.70
2022-08-22T16:59:42.442Z,24.60
2022-08-22T17:02:25.259Z,24.50
2022-08-22T17:05:03.355Z,24.20
2022-08-22T17:07:37.614Z,24.20
2022-08-22T17:10:34.143Z,24.20
2022-08-22T17:13:11.056Z,24.10
2022-08-22T17:15:47.292Z,23.90
2022-08-22T17:18:41.440Z,24.00
2022-08-22T17:21:12.935Z,23.80
2022-08-22T17:23:43.442Z,23.80
2022-08-22T17:26:20.045Z,23.80
2022-08-22T17:28:53.331Z,23.70
2022-08-22T17:31:25.598Z,23.70
2022-08-22T17:34:04.850Z,23.60
2022-08-22T17:36:42.923Z,23.50
2022-08-22T17:39:17.240Z,23.50
2022-08-22T17:41:47.083Z,23.50
2022-08-22T17:44:17.533Z,23.40
2022-08-22T17:46:48.427Z,23.30
2022-08-22T17:49:21.819Z,23.20
2022-08-22T17:51:54.362Z,23.20
2022-08-22T17:54:28.275Z,23.10
2022-08-22T17:57:05.686Z,23.00
2022-08-22T17:59:38.208Z,22.90
2022-08-22T18:02:11.398Z,22.90
2022-08-22T18:04:47.277Z,22.80
2022-08-22T18:07:36.162Z,22.70
2022-08-22T18:10:08.291Z,22.60
2022-08-22T18:12:41.040Z,22.60
2022-08-22T18:15:12.665Z,22.60
2022-08-22T18:17:42.613Z,22.50
2022-08-22T18:20:12.286Z,22.40
2022-08-22T18:22:47.451Z,22.40
2022-08-22T18:25:30.554Z,22.30
2022-08-22T18:28:02.150Z,22.40
2022-08-22T18:30:32.116Z,22.30
2022-08-22T18:33:02.761Z,22.20
2022-08-22T18:35:35.603Z,22.20
2022-08-22T18:38:19.505Z,22.10
2022-08-22T18:40:50.497Z,22.00
2022-08-22T18:43:23.930Z,22.00
2022-08-22T18:46:03.810Z,22.00
2022-08-22T18:48:49.463Z,21.90
2022-08-22T18:51:25.035Z,21.90
2022-08-22T18:53:56.185Z,21.80
2022-08-22T18:56:46.893Z,21.60
2022-08-22T18:59:26.020Z,21.60
2022-08-22T19:02:02.439Z,21.50
2022-08-22T19:04:47.127Z,21.50
2022-08-22T19:07:26.115Z,21.50
2022-08-22T19:10:20.800Z,21.50
2022-08-22T19:12:59.297Z,21.40
2022-08-22T19:15:32.752Z,21.30
2022-08-22T19:18:29.897Z,21.30
2022-08-22T19:21:37.887Z,21.30
2022-08-22T19:24:07.230Z,21.30
2022-08-22T19:26:38.991Z,21.20
2022-08-22T19:29:10.928Z,21.20
2022-08-22T19:32:00.373Z,21.20
2022-08-22T19:34:39.706Z,21.10
2022-08-22T19:37:32.077Z,20.90
2022-08-22T19:40:02.962Z,20.80
2022-08-22T19:42:39.399Z,20.90
2022-08-22T19:45:10.379Z,20.80
2022-08-22T19:47:39.651Z,20.80
2022-08-22T19:50:14.628Z,20.80
2022-08-22T19:52:52.219Z,20.80
2022-08-22T19:55:23.729Z,20.80
2022-08-22T19:57:58.647Z,20.60
2022-08-22T20:00:41.743Z,20.60
2022-08-22T20:03:12.708Z,20.70
2022-08-22T20:05:57.532Z,20.60
2022-08-22T20:08:37.727Z,20.60
2022-08-22T20:11:16.620Z,20.60
2022-08-22T20:13:46.504Z,20.60
2022-08-22T20:16:17.310Z,20.50
2022-08-22T20:19:18.982Z,20.50
2022-08-22T20:21:53.969Z,20.50
2022-08-22T20:24:25.622Z,20.50
2022-08-22T20:27:12.867Z,20.40
2022-08-22T20:29:45.504Z,20.40
2022-08-22T20:32:14.508Z,20.40
2022-08-22T20:34:42.730Z,20.40
2022-08-22T20:37:29.602Z,20.30
2022-08-22T20:40:04.481Z,20.30
2022-08-22T20:42:32.599Z,20.30
2022-08-22T20:45:03.587Z,20.30
2022-08-22T20:47:41.794Z,20.20
2022-08-22T20:50:12.030Z,20.20
2022-08-22T20:52:43.751Z,20.20
2022-08-22T20:55:25.947Z,20.10
2022-08-22T20:58:01.577Z,20.10
2022-08-22T21:00:32.848Z,20.10
2022-08-22T21:03:02.629Z,20.10
2022-08-22T21:05:34.503Z,20.00
2022-08-22T21:08:04.808Z,20.00
2022-08-22T21:10:51.257Z,20.00
2022-08-22T21:13:21.045Z,20.00
2022-08-22T21:15:51.504Z,19.90
2022-08-22T21:18:28.179Z,19.90
2022-08-22T21:20:56.369Z,19.90
2022-08-22T21:23:24.444Z,19.90
2022-08-22T21:25:56.679Z,19.90
2022-08-22T21:28:29.726Z,19.80
2022-08-22T21:30:59.355Z,19.80
2022-08-22T21:33:27.416Z,19.80
2022-08-22T21:35:56.656Z,19.70
2022-08-22T21:38:24.717Z,19.70
2022-08-22T21:40:52.929Z,19.60
2022-08-22T21:43:31.859Z,19.50
2022-08-22T21:46:01.352Z,19.50
2022-08-22T21:48:34.176Z,19.40
2022-08-22T21:51:21.557Z,19.40
2022-08-22T21:53:49.693Z,19.40
2022-08-22T21:56:37.766Z,19.40
2022-08-22T21:59:26.197Z,19.40
2022-08-22T22:02:37.143Z,19.40
2022-08-22T22:05:08.302Z,19.40
2022-08-22T22:07:37.705Z,19.40
2022-08-22T22:10:07.395Z,19.40
2022-08-22T22:12:35.475Z,19.40
2022-08-22T22:15:03.788Z,19.40
2022-08-22T22:17:31.864Z,19.40
2022-08-22T22:20:01.313Z,19.30
2022-08-22T22:22:29.384Z,19.30
2022-08-22T22:24:57.491Z,19.30
2022-08-22T22:27:25.578Z,19.30
2022-08-22T22:29:53.743Z,19.30
2022-08-22T22:32:21.823Z,19.20
2022-08-22T22:34:49.925Z,19.20
2022-08-22T22:37:19.553Z,19.20
2022-08-22T22:39:47.704Z,19.10
2022-08-22T22:42:15.811Z,19.10
2022-08-22T22:44:46.468Z,19.00
2022-08-22T22:47:15.741Z,19.00
2022-08-22T22:49:44.917Z,19.00
2022-08-22T22:52:12.990Z,19.10
2022-08-22T22:54:42.965Z,19.00
2022-08-22T22:57:12.155Z,19.00
2022-08-22T22:59:41.130Z,18.90
2022-08-22T23:02:10.113Z,18.90
2022-08-22T23:04:42.275Z,18.90
2022-08-22T23:07:10.997Z,18.90
2022-08-22T23:09:44.937Z,18.90
2022-08-22T23:12:14.731Z,18.90
2022-08-22T23:14:42.834Z,18.90
2022-08-22T23:17:10.895Z,18.90
2022-08-22T23:19:39.320Z,18.90
2022-08-22T23:22:07.786Z,18.90
2022-08-22T23:24:36.164Z,18.80
2022-08-22T23:27:04.426Z,18.70
2022-08-22T23:29:33.870Z,18.80
2022-08-22T23:32:02.958Z,18.80
2022-08-22T23:34:31.951Z,18.80
2022-08-22T23:37:01.330Z,18.80
2022-08-22T23:39:30.271Z,18.80
2022-08-22T23:41:58.622Z,18.80
2022-08-22T23:44:30.706Z,18.70
2022-08-22T23:47:00.453Z,18.70
2022-08-22T23:49:28.587Z,18.70
2022-08-22T23:51:56.696Z,18.70
2022-08-22T23:54:24.809Z,18.70
2022-08-22T23:56:53.799Z,18.60
2022-08-22T23:59:23.264Z,18.60
